Time;durP1;ratioP1;P1;durP2;ratioP2;P2;SDS_P1;SDS_P2;PMS_P1;PMS_P2;Temp;Humidity;BMP_temperature;BMP_pressure;BME280_temperature;BME280_humidity;BME280_pressure;Samples;Min_cycle;Max_cycle;Signal;HPM_P1;HPM_P2
2022/11/09 00:01:39;;;;;;;2.97;1.73;;;11.30;99.90;;;;;;5077592;28;20707;-77
2022/11/09 00:04:08;;;;;;;3.07;1.70;;;11.40;99.90;;;;;;5075603;28;20704;-77
2022/11/09 00:06:35;;;;;;;4.10;1.50;;;11.40;99.90;;;;;;5070279;28;20235;-77
2022/11/09 00:09:04;;;;;;;2.47;1.60;;;11.40;99.90;;;;;;5081553;28;20222;-76
2022/11/09 00:11:30;;;;;;;3.83;1.70;;;11.40;99.90;;;;;;5088056;28;20319;-77
2022/11/09 00:13:57;;;;;;;3.67;1.70;;;11.40;99.90;;;;;;5076520;28;20220;-77
2022/11/09 00:16:24;;;;;;;2.97;1.73;;;11.40;99.90;;;;;;5081033;28;20906;-77
2022/11/09 00:18:52;;;;;;;2.07;1.47;;;11.40;99.90;;;;;;5068121;28;20712;-77
2022/11/09 00:21:21;;;;;;;1.63;1.33;;;11.40;99.90;;;;;;5074851;28;20226;-76
2022/11/09 00:23:48;;;;;;;2.67;1.60;;;11.40;99.90;;;;;;5074577;28;20218;-78
2022/11/09 00:26:16;;;;;;;2.23;1.60;;;11.50;99.90;;;;;;5081815;28;20702;-76
2022/11/09 00:28:43;;;;;;;3.27;1.70;;;11.50;99.90;;;;;;5075891;28;20726;-76
2022/11/09 00:31:12;;;;;;;3.83;1.77;;;11.40;99.90;;;;;;5076116;28;20239;-77
2022/11/09 00:33:39;;;;;;;4.53;1.63;;;11.40;99.90;;;;;;5075654;28;20223;-76
2022/11/09 00:36:10;;;;;;;2.77;1.60;;;11.40;99.90;;;;;;5079125;28;20273;-76
2022/11/09 00:38:39;;;;;;;2.30;1.40;;;11.40;99.90;;;;;;5075793;28;20233;-75
2022/11/09 00:41:08;;;;;;;3.77;1.83;;;11.30;99.90;;;;;;5080757;28;20237;-76
2022/11/09 00:43:34;;;;;;;3.63;1.90;;;11.30;99.90;;;;;;5070187;28;20257;-75
2022/11/09 00:46:01;;;;;;;5.40;1.80;;;11.30;99.90;;;;;;5069112;28;20848;-76
2022/11/09 00:48:28;;;;;;;3.07;1.87;;;11.30;99.90;;;;;;5081064;28;20227;-75
2022/11/09 00:50:56;;;;;;;2.50;1.40;;;11.20;99.90;;;;;;5081666;28;20212;-77
2022/11/09 00:53:24;;;;;;;3.97;1.47;;;11.20;99.90;;;;;;5075419;28;20226;-77
2022/11/09 00:55:56;;;;;;;3.03;1.70;;;11.20;99.90;;;;;;5080355;28;20739;-77
2022/11/09 00:58:24;;;;;;;3.57;1.70;;;11.20;99.90;;;;;;5051230;28;20273;-76
2022/11/09 01:00:51;;;;;;;4.03;1.80;;;11.20;99.90;;;;;;5079594;28;20247;-77
2022/11/09 01:03:20;;;;;;;4.03;1.70;;;11.20;99.90;;;;;;5078819;28;20222;-75
2022/11/09 01:05:47;;;;;;;2.03;1.43;;;11.20;99.90;;;;;;5080250;28;20324;-77
2022/11/09 01:08:14;;;;;;;5.17;1.80;;;11.20;99.90;;;;;;5078625;28;20585;-77
2022/11/09 01:10:42;;;;;;;3.20;1.40;;;11.20;99.90;;;;;;5073871;28;20233;-76
2022/11/09 01:13:11;;;;;;;2.60;1.83;;;11.20;99.90;;;;;;5077878;28;21099;-78
2022/11/09 01:15:43;;;;;;;2.77;1.73;;;11.20;99.90;;;;;;5071511;28;20237;-77
2022/11/09 01:18:09;;;;;;;2.83;1.63;;;11.10;99.90;;;;;;5071290;28;20227;-76
2022/11/09 01:20:40;;;;;;;2.83;1.60;;;11.10;99.90;;;;;;5073839;28;20215;-76
2022/11/09 01:23:06;;;;;;;1.83;1.47;;;11.10;99.90;;;;;;5078993;28;20919;-77
2022/11/09 01:25:33;;;;;;;3.00;1.67;;;11.20;99.90;;;;;;5086005;28;20278;-77
2022/11/09 01:28:00;;;;;;;5.70;1.60;;;11.20;99.90;;;;;;5085100;28;20232;-77
2022/11/09 01:30:29;;;;;;;2.57;1.77;;;11.20;99.90;;;;;;5075605;28;20231;-77
2022/11/09 01:32:56;;;;;;;2.90;1.60;;;11.30;99.90;;;;;;5069173;28;20219;-76
2022/11/09 01:35:23;;;;;;;2.77;1.73;;;11.30;99.90;;;;;;5085815;28;20330;-76
2022/11/09 01:37:50;;;;;;;4.03;1.73;;;11.30;99.90;;;;;;5073885;28;20226;-77
2022/11/09 01:40:16;;;;;;;5.50;1.70;;;11.40;99.90;;;;;;5080489;28;20225;-77
2022/11/09 01:42:43;;;;;;;4.33;1.60;;;11.30;99.90;;;;;;5071852;28;20220;-77
2022/11/09 01:45:23;;;;;;;2.13;1.67;;;11.30;99.90;;;;;;5073763;28;20225;-76
2022/11/09 01:47:57;;;;;;;5.27;1.73;;;11.30;99.90;;;;;;5076870;28;20238;-76
2022/11/09 01:50:31;;;;;;;2.17;1.50;;;11.30;99.90;;;;;;5071958;28;20230;-77
2022/11/09 01:52:59;;;;;;;2.10;1.47;;;11.30;99.90;;;;;;5079989;28;20224;-76
2022/11/09 01:55:26;;;;;;;4.43;1.67;;;11.30;99.90;;;;;;5087025;27;20226;-76
2022/11/09 01:57:56;;;;;;;2.63;1.50;;;11.30;99.90;;;;;;5080125;28;20959;-76
2022/11/09 02:00:23;;;;;;;2.80;1.57;;;11.30;99.90;;;;;;5075620;28;20698;-77
2022/11/09 02:02:55;;;;;;;3.87;1.60;;;11.30;99.90;;;;;;5079568;28;20223;-75
2022/11/09 02:05:25;;;;;;;2.67;1.57;;;11.30;99.90;;;;;;5071412;28;20222;-76
2022/11/09 02:07:55;;;;;;;4.13;1.57;;;11.30;99.90;;;;;;5080928;28;20221;-75
2022/11/09 02:10:28;;;;;;;1.80;1.50;;;11.30;99.90;;;;;;5079035;28;20232;-77
2022/11/09 02:12:57;;;;;;;2.67;1.67;;;11.40;99.90;;;;;;5074269;28;20231;-77
2022/11/09 02:15:25;;;;;;;4.17;1.90;;;11.30;99.90;;;;;;5082764;28;20227;-77
2022/11/09 02:17:55;;;;;;;2.80;1.60;;;11.30;99.90;;;;;;5070934;28;20227;-75
2022/11/09 02:20:23;;;;;;;2.57;1.70;;;11.30;99.90;;;;;;5075702;28;20217;-77
2022/11/09 02:22:53;;;;;;;3.63;1.47;;;11.30;99.90;;;;;;5073801;28;20246;-75
2022/11/09 02:25:21;;;;;;;3.63;1.67;;;11.40;99.90;;;;;;5074544;28;20235;-77
2022/11/09 02:27:49;;;;;;;4.37;2.00;;;11.40;99.90;;;;;;5079985;28;20687;-76
2022/11/09 02:30:19;;;;;;;3.47;1.83;;;11.40;99.90;;;;;;5076837;28;20225;-77
2022/11/09 02:32:47;;;;;;;3.20;1.57;;;11.40;99.90;;;;;;5071134;28;20215;-75
2022/11/09 02:35:14;;;;;;;4.43;1.70;;;11.40;99.90;;;;;;5069886;28;20226;-77
2022/11/09 02:37:48;;;;;;;3.03;1.70;;;11.50;99.90;;;;;;5076697;28;20221;-76
2022/11/09 02:40:20;;;;;;;2.60;1.53;;;11.50;99.90;;;;;;5074800;28;20703;-77
2022/11/09 02:42:47;;;;;;;3.47;1.43;;;11.50;99.90;;;;;;5071693;28;20242;-77
2022/11/09 02:45:14;;;;;;;1.80;1.30;;;11.50;99.90;;;;;;5066980;28;20219;-76
2022/11/09 02:47:42;;;;;;;4.67;1.60;;;11.50;99.90;;;;;;5070185;28;20227;-76
2022/11/09 02:50:09;;;;;;;4.10;1.80;;;11.50;99.90;;;;;;5081417;28;20218;-74
2022/11/09 02:52:36;;;;;;;4.17;1.70;;;11.60;99.90;;;;;;5070508;28;20239;-76
2022/11/09 02:55:05;;;;;;;2.43;1.67;;;11.60;99.90;;;;;;5076623;28;20225;-76
2022/11/09 02:57:33;;;;;;;3.73;1.57;;;11.60;99.90;;;;;;5074746;28;20276;-75
2022/11/09 03:00:00;;;;;;;3.00;1.50;;;11.60;99.90;;;;;;5079224;28;20893;-77
2022/11/09 03:02:27;;;;;;;3.60;1.57;;;11.60;99.90;;;;;;5070002;28;20230;-77
2022/11/09 03:04:54;;;;;;;2.33;1.40;;;11.70;99.90;;;;;;5066668;28;20681;-76
2022/11/09 03:07:21;;;;;;;3.80;1.83;;;11.70;99.90;;;;;;5072277;28;20231;-81
2022/11/09 03:09:48;;;;;;;2.40;1.50;;;11.70;99.90;;;;;;5074144;28;20251;-79
2022/11/09 03:12:30;;;;;;;2.87;1.60;;;11.70;99.90;;;;;;5073918;28;20290;-81
2022/11/09 03:15:07;;;;;;;3.40;1.67;;;11.70;99.90;;;;;;5083803;28;20230;-81
2022/11/09 03:17:35;;;;;;;4.73;1.90;;;11.70;99.90;;;;;;5076164;28;20222;-79
2022/11/09 03:20:03;;;;;;;3.60;1.73;;;11.80;99.90;;;;;;5074210;28;20219;-82
2022/11/09 03:22:29;;;;;;;3.60;1.70;;;11.80;99.90;;;;;;5072250;28;20230;-79
2022/11/09 03:24:56;;;;;;;4.00;1.70;;;11.70;99.90;;;;;;5076202;28;20224;-80
2022/11/09 03:27:25;;;;;;;2.87;1.70;;;11.70;99.90;;;;;;5092458;28;20648;-80
2022/11/09 03:29:52;;;;;;;1.73;1.50;;;11.70;99.90;;;;;;5081677;28;21151;-83
2022/11/09 03:32:19;;;;;;;4.10;1.93;;;11.60;99.90;;;;;;5072000;28;20877;-79
2022/11/09 03:34:48;;;;;;;2.83;1.57;;;11.60;99.90;;;;;;5078968;28;20656;-80
2022/11/09 03:37:14;;;;;;;3.20;1.60;;;11.60;99.90;;;;;;5077589;28;20232;-81
2022/11/09 03:39:42;;;;;;;3.03;1.70;;;11.60;99.90;;;;;;5082575;28;20239;-79
2022/11/09 03:42:11;;;;;;;2.77;1.63;;;11.60;99.90;;;;;;5076566;28;20224;-82
2022/11/09 03:44:40;;;;;;;4.13;1.80;;;11.60;99.90;;;;;;5082943;28;20279;-78
2022/11/09 03:47:07;;;;;;;3.87;1.80;;;11.60;99.90;;;;;;5077307;28;20231;-82
2022/11/09 03:49:33;;;;;;;2.10;1.60;;;11.60;99.90;;;;;;5084057;28;20222;-83
2022/11/09 03:52:00;;;;;;;3.10;1.60;;;11.60;99.90;;;;;;5074434;28;20877;-79
2022/11/09 03:54:27;;;;;;;3.50;1.67;;;11.50;99.90;;;;;;5082602;28;20236;-79
2022/11/09 03:56:53;;;;;;;2.70;1.60;;;11.50;99.90;;;;;;5077133;28;20226;-79
2022/11/09 03:59:20;;;;;;;2.03;1.37;;;11.50;99.90;;;;;;5081854;28;20979;-79
2022/11/09 04:01:48;;;;;;;2.63;1.73;;;11.50;99.90;;;;;;5074698;28;20219;-79
2022/11/09 04:04:15;;;;;;;2.60;1.50;;;11.50;99.90;;;;;;5077054;28;20440;-80
2022/11/09 04:06:41;;;;;;;3.27;1.57;;;11.50;99.90;;;;;;5071490;28;20758;-78
2022/11/09 04:09:10;;;;;;;2.20;1.50;;;11.50;99.90;;;;;;5074636;28;20237;-78
2022/11/09 04:11:36;;;;;;;4.17;1.70;;;11.50;99.90;;;;;;5072468;28;20218;-79
2022/11/09 04:14:03;;;;;;;3.27;1.33;;;11.50;99.90;;;;;;5076314;28;20742;-79
2022/11/09 04:16:30;;;;;;;3.27;1.70;;;11.50;99.90;;;;;;5075553;28;20230;-79
2022/11/09 04:18:58;;;;;;;2.70;1.70;;;11.50;99.90;;;;;;5079566;28;20310;-83
2022/11/09 04:21:25;;;;;;;3.47;1.70;;;11.50;99.90;;;;;;5077395;28;20233;-81
2022/11/09 04:23:52;;;;;;;2.83;1.70;;;11.40;99.90;;;;;;5075163;28;20893;-79
2022/11/09 04:26:18;;;;;;;2.90;1.70;;;11.40;99.90;;;;;;5077047;28;20228;-79
2022/11/09 04:28:46;;;;;;;2.33;1.63;;;11.40;99.90;;;;;;5086204;28;20881;-78
2022/11/09 04:31:13;;;;;;;2.70;1.70;;;11.40;99.90;;;;;;5073276;28;20590;-84
2022/11/09 04:33:39;;;;;;;3.37;1.60;;;11.40;99.90;;;;;;5079027;28;20214;-80
2022/11/09 04:36:08;;;;;;;2.30;1.60;;;11.40;99.90;;;;;;5079397;28;20220;-82
2022/11/09 04:38:35;;;;;;;2.90;1.40;;;11.40;99.90;;;;;;5080152;28;20219;-81
2022/11/09 04:41:04;;;;;;;3.97;2.00;;;11.40;99.90;;;;;;5072200;28;20693;-80
2022/11/09 04:43:31;;;;;;;2.43;1.37;;;11.30;99.90;;;;;;5078274;28;20297;-81
2022/11/09 04:45:59;;;;;;;3.53;1.60;;;11.30;99.90;;;;;;5080185;28;20222;-80
2022/11/09 04:48:26;;;;;;;2.43;1.60;;;11.30;99.90;;;;;;5074447;28;20231;-79
2022/11/09 04:50:58;;;;;;;2.80;1.53;;;11.30;99.90;;;;;;5078972;28;21295;-80
2022/11/09 04:53:26;;;;;;;3.20;1.60;;;11.30;99.90;;;;;;5066556;28;20215;-79
2022/11/09 04:55:52;;;;;;;4.10;1.73;;;11.30;99.90;;;;;;5072968;28;20744;-79
2022/11/09 04:58:19;;;;;;;3.37;1.50;;;11.20;99.90;;;;;;5076700;28;20616;-80
2022/11/09 05:00:46;;;;;;;2.37;1.60;;;11.20;99.90;;;;;;5075308;28;20233;-82
2022/11/09 05:03:13;;;;;;;2.60;1.50;;;11.20;99.90;;;;;;5064864;28;20253;-78
2022/11/09 05:05:40;;;;;;;4.83;1.77;;;11.20;99.90;;;;;;5077313;28;20232;-79
2022/11/09 05:08:08;;;;;;;3.77;1.67;;;11.10;99.90;;;;;;5080131;28;20349;-78
2022/11/09 05:10:36;;;;;;;4.80;1.73;;;11.10;99.90;;;;;;5085695;28;20233;-80
2022/11/09 05:13:04;;;;;;;4.83;1.80;;;11.10;99.90;;;;;;5072050;28;20227;-79
2022/11/09 05:15:31;;;;;;;4.30;1.60;;;11.10;99.90;;;;;;5073413;28;20233;-78
2022/11/09 05:17:58;;;;;;;3.60;1.30;;;11.10;99.90;;;;;;5078576;28;20310;-79
2022/11/09 05:20:25;;;;;;;3.47;1.60;;;11.10;99.90;;;;;;5082332;28;20282;-84
2022/11/09 05:25:37;;;;;;;4.07;1.73;;;11.20;99.90;;;;;;5075307;28;20226;-80
2022/11/09 05:28:04;;;;;;;3.10;1.60;;;11.20;99.90;;;;;;5076136;28;20219;-80
2022/11/09 05:30:31;;;;;;;3.50;1.60;;;11.20;99.90;;;;;;5078760;28;20226;-80
2022/11/09 05:32:58;;;;;;;2.73;1.43;;;11.20;99.90;;;;;;5074661;28;20327;-80
2022/11/09 05:35:25;;;;;;;2.07;1.33;;;11.20;99.90;;;;;;5075366;28;20227;-80
2022/11/09 05:37:51;;;;;;;3.57;1.40;;;11.20;99.90;;;;;;5078567;28;20235;-81
2022/11/09 05:40:19;;;;;;;4.43;1.60;;;11.20;99.90;;;;;;5080573;28;20219;-81
2022/11/09 05:42:47;;;;;;;2.03;1.40;;;11.30;99.90;;;;;;5081492;28;20225;-82
2022/11/09 05:45:16;;;;;;;3.07;1.43;;;11.30;99.90;;;;;;5076482;28;20358;-80
2022/11/09 05:47:44;;;;;;;2.07;1.47;;;11.40;99.90;;;;;;5070970;28;20722;-79
2022/11/09 05:50:13;;;;;;;3.17;1.37;;;11.40;99.90;;;;;;5081666;28;20246;-80
2022/11/09 05:52:40;;;;;;;3.60;1.70;;;11.50;99.90;;;;;;5074669;28;20265;-79
2022/11/09 05:55:07;;;;;;;4.33;1.60;;;11.50;99.90;;;;;;5079806;28;20966;-79
2022/11/09 05:57:34;;;;;;;3.67;1.47;;;11.60;99.90;;;;;;5078631;28;20245;-80
2022/11/09 06:00:02;;;;;;;2.60;1.57;;;11.60;99.90;;;;;;5080625;28;20225;-79
2022/11/09 06:02:39;;;;;;;2.47;1.37;;;11.60;99.90;;;;;;5078083;28;20225;-79
2022/11/09 06:05:06;;;;;;;2.43;1.40;;;11.60;99.90;;;;;;5073690;28;20225;-79
2022/11/09 06:07:33;;;;;;;4.43;1.97;;;11.60;99.90;;;;;;5091307;28;20233;-81
2022/11/09 06:10:00;;;;;;;4.60;1.60;;;11.60;99.90;;;;;;5081851;28;20224;-81
2022/11/09 06:12:27;;;;;;;2.37;1.60;;;11.60;99.90;;;;;;5079336;28;20219;-82
2022/11/09 06:14:54;;;;;;;3.23;1.47;;;11.60;99.90;;;;;;5069091;28;20220;-80
2022/11/09 06:17:21;;;;;;;3.40;1.60;;;11.60;99.90;;;;;;5080675;28;20571;-80
2022/11/09 06:19:48;;;;;;;1.93;1.33;;;11.60;99.90;;;;;;5081803;28;20220;-81
2022/11/09 06:22:15;;;;;;;3.00;1.50;;;11.60;99.90;;;;;;5077788;28;20220;-81
2022/11/09 06:24:42;;;;;;;3.10;1.40;;;11.60;99.90;;;;;;5076595;28;20264;-81
2022/11/09 06:27:09;;;;;;;3.57;1.70;;;11.60;99.90;;;;;;5076381;28;20306;-81
2022/11/09 06:29:35;;;;;;;2.43;1.40;;;11.60;99.90;;;;;;5082451;28;20744;-78
2022/11/09 06:32:02;;;;;;;3.80;1.70;;;11.60;99.90;;;;;;5080733;28;20221;-79
2022/11/09 06:34:30;;;;;;;3.13;1.70;;;11.60;99.90;;;;;;5079905;28;20237;-78
2022/11/09 06:36:57;;;;;;;2.30;1.30;;;11.60;99.90;;;;;;5077875;28;20864;-81
2022/11/09 06:39:23;;;;;;;3.53;1.40;;;11.60;99.90;;;;;;5079494;28;20708;-81
2022/11/09 06:41:50;;;;;;;2.53;1.80;;;11.60;99.90;;;;;;5077755;28;20245;-82
2022/11/09 06:44:17;;;;;;;2.23;1.30;;;11.60;99.90;;;;;;5075145;28;20230;-80
2022/11/09 06:46:43;;;;;;;4.87;1.80;;;11.60;99.90;;;;;;5079757;28;20230;-81
2022/11/09 06:49:12;;;;;;;1.70;1.30;;;11.60;99.90;;;;;;5081630;28;20285;-80
2022/11/09 06:51:40;;;;;;;3.73;1.53;;;11.50;99.90;;;;;;5076033;28;20859;-80
2022/11/09 06:54:07;;;;;;;3.00;1.57;;;11.50;99.90;;;;;;5050603;28;20231;-80
2022/11/09 06:56:34;;;;;;;2.30;1.40;;;11.50;99.90;;;;;;5079669;28;20227;-81
2022/11/09 06:59:04;;;;;;;2.73;1.50;;;11.60;99.90;;;;;;5089538;28;20916;-80
2022/11/09 07:01:30;;;;;;;1.50;1.30;;;11.60;99.90;;;;;;5071433;28;20226;-81
2022/11/09 07:03:57;;;;;;;2.67;1.40;;;11.50;99.90;;;;;;5074720;28;20217;-80
2022/11/09 07:06:24;;;;;;;4.37;1.70;;;11.60;99.90;;;;;;5094144;27;20241;-81
2022/11/09 07:08:55;;;;;;;3.03;1.40;;;11.60;99.90;;;;;;5084794;28;20246;-80
2022/11/09 07:11:21;;;;;;;2.77;1.20;;;11.60;99.90;;;;;;5094701;28;20801;-80
2022/11/09 07:13:48;;;;;;;3.03;1.40;;;11.60;99.90;;;;;;5080658;28;20235;-81
2022/11/09 07:16:18;;;;;;;2.03;1.33;;;11.60;99.90;;;;;;5081188;28;20255;-80
2022/11/09 07:18:45;;;;;;;3.47;1.33;;;11.60;99.90;;;;;;5082065;28;20563;-80
2022/11/09 07:21:13;;;;;;;4.23;1.63;;;11.70;99.90;;;;;;5096947;28;20230;-80
2022/11/09 07:23:40;;;;;;;2.43;1.23;;;11.70;99.90;;;;;;5084475;28;20298;-80
2022/11/09 07:26:08;;;;;;;1.67;1.30;;;11.60;99.90;;;;;;5076073;28;20238;-80
2022/11/09 07:28:35;;;;;;;3.50;1.60;;;11.60;99.90;;;;;;5070485;28;20315;-80
2022/11/09 07:31:02;;;;;;;2.27;1.37;;;11.60;99.90;;;;;;5077324;28;20223;-80
2022/11/09 07:33:32;;;;;;;3.83;1.50;;;11.60;99.90;;;;;;5082102;28;20222;-80
2022/11/09 07:35:59;;;;;;;2.80;1.50;;;11.60;99.90;;;;;;5085364;28;20249;-80
2022/11/09 07:38:25;;;;;;;3.33;1.43;;;11.50;99.90;;;;;;5094808;27;20222;-81
2022/11/09 07:40:52;;;;;;;3.67;1.30;;;11.50;99.90;;;;;;5084882;28;20223;-80
2022/11/09 07:43:20;;;;;;;3.67;1.43;;;11.50;99.90;;;;;;5076668;28;20232;-80
2022/11/09 07:45:50;;;;;;;3.30;1.50;;;11.60;99.90;;;;;;5075284;28;20229;-81
2022/11/09 07:48:17;;;;;;;3.30;1.77;;;11.50;99.90;;;;;;5077410;28;20512;-80
2022/11/09 07:50:44;;;;;;;2.47;1.30;;;11.50;99.90;;;;;;5091045;27;20229;-81
2022/11/09 07:53:13;;;;;;;5.03;1.90;;;11.50;99.90;;;;;;5077491;28;20224;-81
2022/11/09 07:55:40;;;;;;;2.67;1.33;;;11.50;99.90;;;;;;5079322;28;20247;-81
2022/11/09 07:58:10;;;;;;;4.10;2.13;;;11.50;99.90;;;;;;5074456;28;20312;-80
2022/11/09 08:00:40;;;;;;;5.17;1.87;;;11.50;99.90;;;;;;5073329;28;20227;-81
2022/11/09 08:03:08;;;;;;;3.07;1.50;;;11.50;99.90;;;;;;5089402;28;20225;-80
2022/11/09 08:05:35;;;;;;;3.03;1.80;;;11.50;99.90;;;;;;5100656;28;20232;-80
2022/11/09 08:08:04;;;;;;;3.03;1.90;;;11.60;99.90;;;;;;5091231;28;20226;-80
2022/11/09 08:10:32;;;;;;;4.77;1.40;;;11.60;99.90;;;;;;5058404;28;20238;-80
2022/11/09 08:13:01;;;;;;;3.40;1.70;;;11.60;99.90;;;;;;5076376;28;20214;-82
2022/11/09 08:15:28;;;;;;;1.77;1.33;;;11.70;99.90;;;;;;5080456;28;20228;-80
2022/11/09 08:17:59;;;;;;;3.50;1.43;;;11.70;99.90;;;;;;5082456;28;20376;-80
2022/11/09 08:20:26;;;;;;;6.17;1.53;;;11.80;99.90;;;;;;5086856;27;20280;-81
2022/11/09 08:22:53;;;;;;;4.63;1.50;;;11.90;99.90;;;;;;5099775;28;20233;-82
2022/11/09 08:25:19;;;;;;;5.50;1.60;;;12.00;99.90;;;;;;5086352;28;20707;-80
2022/11/09 08:27:48;;;;;;;6.20;1.80;;;12.00;99.90;;;;;;5068187;28;20658;-81
2022/11/09 08:30:18;;;;;;;2.27;1.50;;;12.00;99.90;;;;;;5075314;28;20257;-80
2022/11/09 08:32:45;;;;;;;13.13;1.80;;;12.10;99.90;;;;;;5077111;28;20224;-81
2022/11/09 08:35:16;;;;;;;2.37;1.33;;;12.10;99.90;;;;;;5093848;28;20214;-81
2022/11/09 08:37:44;;;;;;;4.27;1.60;;;12.20;99.90;;;;;;5085720;28;20229;-80
2022/11/09 08:40:11;;;;;;;2.80;1.33;;;12.20;99.90;;;;;;5073036;28;20261;-80
2022/11/09 08:42:38;;;;;;;3.13;1.63;;;12.30;99.90;;;;;;5080568;28;20223;-80
2022/11/09 08:45:05;;;;;;;2.43;1.10;;;12.30;99.90;;;;;;5071567;28;20231;-81
2022/11/09 08:47:33;;;;;;;3.57;1.30;;;12.40;99.90;;;;;;5084115;28;20325;-79
2022/11/09 08:49:59;;;;;;;4.00;1.50;;;12.50;99.90;;;;;;5084425;28;20244;-80
2022/11/09 08:52:28;;;;;;;3.47;1.47;;;12.60;99.90;;;;;;5078435;28;20303;-80
2022/11/09 08:54:54;;;;;;;4.20;1.60;;;12.60;99.90;;;;;;5067255;28;20217;-80
2022/11/09 08:57:21;;;;;;;2.30;1.50;;;12.80;99.90;;;;;;5063947;28;20269;-80
2022/11/09 08:59:51;;;;;;;3.27;1.40;;;13.10;99.90;;;;;;5068004;28;20778;-81
2022/11/09 09:02:17;;;;;;;3.97;1.50;;;13.40;99.90;;;;;;5088839;28;20455;-81
2022/11/09 09:04:44;;;;;;;4.83;1.70;;;13.90;99.90;;;;;;5083318;28;20237;-80
2022/11/09 09:07:12;;;;;;;4.07;1.67;;;14.40;99.90;;;;;;5079416;28;20239;-80
2022/11/09 09:09:40;;;;;;;5.60;1.60;;;14.90;99.90;;;;;;5078220;28;20229;-80
2022/11/09 09:12:08;;;;;;;4.93;1.80;;;15.30;99.90;;;;;;5070685;28;20227;-82
2022/11/09 09:14:36;;;;;;;4.40;1.70;;;15.60;99.90;;;;;;5071497;28;20229;-80
2022/11/09 09:17:03;;;;;;;5.57;1.40;;;15.80;99.90;;;;;;5090349;28;20231;-80
2022/11/09 09:19:30;;;;;;;4.70;1.70;;;16.00;99.90;;;;;;5062302;28;20233;-80
2022/11/09 09:21:57;;;;;;;4.63;1.57;;;16.10;99.90;;;;;;5069496;28;20543;-78
2022/11/09 09:24:25;;;;;;;6.40;1.73;;;16.20;99.90;;;;;;5070685;28;20232;-78
2022/11/09 09:26:53;;;;;;;4.93;1.50;;;16.20;99.90;;;;;;5079412;28;20286;-78
2022/11/09 09:29:22;;;;;;;4.90;1.50;;;16.20;99.90;;;;;;5073059;28;20212;-78
2022/11/09 09:31:49;;;;;;;7.50;2.13;;;16.20;99.90;;;;;;5082613;28;20757;-78
2022/11/09 09:34:15;;;;;;;7.23;2.07;;;16.40;99.90;;;;;;5076572;28;20221;-78
2022/11/09 09:36:42;;;;;;;4.47;1.47;;;16.50;99.90;;;;;;5071714;28;20228;-78
2022/11/09 09:39:09;;;;;;;5.60;1.70;;;16.70;99.90;;;;;;5071710;28;20216;-78
2022/11/09 09:41:38;;;;;;;3.57;1.30;;;16.90;99.90;;;;;;5070015;28;20815;-77
2022/11/09 09:44:21;;;;;;;4.30;2.00;;;17.10;99.90;;;;;;5074934;28;20222;-78
2022/11/09 09:46:53;;;;;;;4.00;1.60;;;17.30;99.90;;;;;;5067991;28;20712;-78
2022/11/09 09:49:25;;;;;;;7.97;1.80;;;17.50;99.90;;;;;;5070513;28;20226;-78
2022/11/09 09:51:56;;;;;;;4.70;1.93;;;17.70;99.90;;;;;;5071110;28;20229;-77
2022/11/09 09:54:25;;;;;;;4.87;1.60;;;17.90;99.70;;;;;;5069054;28;20736;-79
2022/11/09 09:56:55;;;;;;;5.87;1.50;;;18.10;99.40;;;;;;5071699;28;21253;-78
2022/11/09 09:59:31;;;;;;;5.60;2.00;;;18.20;98.90;;;;;;5075319;28;20238;-78
2022/11/09 10:01:59;;;;;;;4.67;1.83;;;18.30;98.30;;;;;;5070971;28;20222;-78
2022/11/09 10:04:34;;;;;;;4.07;1.30;;;18.30;98.10;;;;;;5073667;28;20301;-78
2022/11/09 10:07:07;;;;;;;5.13;1.60;;;18.30;97.70;;;;;;5075150;28;20266;-78
2022/11/09 10:09:55;;;;;;;6.93;1.93;;;18.20;98.00;;;;;;5074463;28;20933;-78
2022/11/09 10:12:30;;;;;;;5.47;1.53;;;18.10;97.60;;;;;;5070489;28;20222;-78
2022/11/09 10:15:25;;;;;;;4.40;1.67;;;17.90;97.50;;;;;;5066000;28;20218;-78
2022/11/09 10:18:03;;;;;;;3.57;1.10;;;17.90;97.90;;;;;;5071958;28;20228;-78
2022/11/09 10:20:41;;;;;;;4.37;1.50;;;17.90;98.30;;;;;;5051795;28;20238;-78
2022/11/09 10:23:24;;;;;;;3.63;1.63;;;17.90;98.40;;;;;;5073210;28;20242;-78
2022/11/09 10:25:57;;;;;;;4.77;1.73;;;17.90;98.30;;;;;;5074427;28;21014;-78
2022/11/09 10:28:27;;;;;;;5.97;1.60;;;18.00;98.00;;;;;;5075589;28;20694;-78
2022/11/09 10:30:56;;;;;;;3.83;1.80;;;18.00;97.80;;;;;;5077273;28;20230;-78
2022/11/09 10:33:23;;;;;;;6.30;1.73;;;18.00;97.70;;;;;;5077147;28;20223;-78
2022/11/09 10:35:54;;;;;;;5.00;1.70;;;18.00;97.60;;;;;;5075233;28;20230;-77
2022/11/09 10:38:25;;;;;;;6.53;1.77;;;17.90;97.20;;;;;;5085550;28;20237;-78
2022/11/09 10:41:18;;;;;;;4.80;1.50;;;17.80;97.20;;;;;;5078895;28;20240;-80
2022/11/09 10:44:04;;;;;;;4.97;1.73;;;17.70;97.20;;;;;;5075327;28;20230;-80
2022/11/09 10:47:05;;;;;;;4.03;1.53;;;17.60;97.40;;;;;;5078776;28;20235;-80
2022/11/09 10:50:07;;;;;;;7.03;1.60;;;17.50;97.40;;;;;;5079368;28;21009;-80
2022/11/09 10:52:53;;;;;;;4.57;1.40;;;17.50;97.20;;;;;;5078372;28;20635;-81
2022/11/09 10:55:38;;;;;;;6.37;1.67;;;17.50;97.70;;;;;;5078327;28;20380;-80
2022/11/09 10:58:30;;;;;;;3.67;1.47;;;17.50;97.30;;;;;;5074127;28;20839;-81
2022/11/09 11:01:18;;;;;;;4.70;1.80;;;17.40;97.30;;;;;;5084468;28;20296;-80
2022/11/09 11:04:22;;;;;;;3.70;1.70;;;17.40;97.10;;;;;;5074989;28;20288;-81
2022/11/09 11:07:14;;;;;;;4.47;1.60;;;17.30;97.00;;;;;;5077954;28;20303;-80
2022/11/09 11:10:10;;;;;;;4.30;1.77;;;17.30;97.20;;;;;;5075937;28;20800;-80
2022/11/09 11:13:23;;;;;;;6.03;1.67;;;17.30;96.80;;;;;;5080729;28;20331;-80
2022/11/09 11:16:23;;;;;;;4.37;1.47;;;17.30;96.60;;;;;;5075945;28;20294;-81
2022/11/09 11:19:30;;;;;;;4.17;1.50;;;17.50;97.30;;;;;;5078771;28;20753;-80
2022/11/09 11:22:22;;;;;;;3.73;1.30;;;17.60;96.80;;;;;;5082547;28;20221;-80
2022/11/09 11:25:18;;;;;;;6.00;1.70;;;17.70;96.70;;;;;;5076090;28;20234;-80
2022/11/09 11:28:14;;;;;;;4.53;1.53;;;17.70;96.40;;;;;;5083036;28;20233;-80
2022/11/09 11:31:02;;;;;;;6.87;1.80;;;17.80;96.30;;;;;;5080044;28;20256;-80
2022/11/09 11:33:48;;;;;;;5.00;1.43;;;17.80;96.30;;;;;;5072477;28;20932;-81
2022/11/09 11:36:48;;;;;;;6.70;1.83;;;17.70;96.20;;;;;;5081636;28;20295;-81
2022/11/09 11:39:50;;;;;;;5.93;1.80;;;17.70;96.10;;;;;;5066739;28;20236;-80
2022/11/09 11:43:19;;;;;;;3.97;1.50;;;17.70;96.00;;;;;;5077645;28;20234;-80
2022/11/09 11:46:17;;;;;;;5.00;1.40;;;17.70;96.00;;;;;;5003116;28;20243;-81
2022/11/09 11:49:45;;;;;;;5.13;1.70;;;17.70;96.00;;;;;;5086559;28;20233;-81
2022/11/09 11:52:40;;;;;;;4.00;1.60;;;17.60;95.70;;;;;;5021545;28;20235;-80
2022/11/09 11:55:43;;;;;;;4.83;1.70;;;17.60;95.70;;;;;;5084203;28;20244;-80
2022/11/09 11:58:47;;;;;;;5.53;1.57;;;17.60;95.90;;;;;;5077788;28;20247;-80
2022/11/09 12:01:44;;;;;;;3.70;1.30;;;17.50;95.60;;;;;;5079354;28;20241;-81
2022/11/09 12:04:55;;;;;;;4.70;1.50;;;17.40;95.90;;;;;;5081612;28;20674;-80
2022/11/09 12:07:55;;;;;;;6.47;1.53;;;17.30;95.70;;;;;;5078661;28;20224;-80
2022/11/09 12:10:49;;;;;;;5.23;1.47;;;17.20;95.60;;;;;;5078794;28;20233;-80
2022/11/09 12:13:48;;;;;;;5.37;1.60;;;17.00;95.60;;;;;;5069481;28;20225;-81
2022/11/09 12:16:45;;;;;;;5.90;1.50;;;16.90;95.70;;;;;;5070011;28;20259;-80
2022/11/09 12:19:47;;;;;;;3.87;1.40;;;16.80;96.00;;;;;;5077291;28;20247;-81
2022/11/09 12:22:45;;;;;;;3.40;1.40;;;16.70;96.10;;;;;;5081974;28;20236;-80
2022/11/09 12:25:42;;;;;;;5.10;1.43;;;16.60;96.20;;;;;;5076437;28;20326;-83
2022/11/09 12:28:57;;;;;;;4.43;1.40;;;16.60;96.30;;;;;;5082892;28;20236;-81
2022/11/09 12:31:56;;;;;;;5.87;1.77;;;16.50;96.40;;;;;;5081604;28;20235;-80
2022/11/09 12:34:52;;;;;;;6.93;2.00;;;16.50;96.50;;;;;;5075718;28;20243;-78
2022/11/09 12:37:44;;;;;;;6.97;1.90;;;16.50;96.90;;;;;;5078189;28;21008;-80
2022/11/09 12:40:32;;;;;;;4.43;1.40;;;16.50;96.80;;;;;;5069234;28;20230;-81
2022/11/09 12:43:26;;;;;;;4.73;1.70;;;16.40;96.90;;;;;;5073830;28;20225;-83
2022/11/09 12:46:14;;;;;;;5.03;1.73;;;16.40;96.80;;;;;;5081879;28;20351;-82
2022/11/09 12:49:04;;;;;;;5.73;1.90;;;16.40;96.70;;;;;;5080954;28;20243;-82
2022/11/09 12:51:51;;;;;;;5.10;1.60;;;16.40;96.80;;;;;;5078514;28;20238;-81
2022/11/09 12:54:42;;;;;;;7.17;1.80;;;16.40;96.70;;;;;;5079507;28;20239;-82
2022/11/09 12:57:29;;;;;;;7.27;1.90;;;16.40;96.50;;;;;;5081900;28;20233;-81
2022/11/09 13:00:46;;;;;;;6.87;1.77;;;16.40;96.50;;;;;;5082666;28;20835;-82
2022/11/09 13:03:37;;;;;;;7.93;1.60;;;16.40;96.50;;;;;;5076754;28;20246;-81
2022/11/09 13:06:27;;;;;;;9.13;2.00;;;16.40;96.70;;;;;;5080120;28;20297;-81
2022/11/09 13:09:23;;;;;;;4.10;1.33;;;16.40;96.30;;;;;;5080184;28;20232;-81
2022/11/09 13:12:22;;;;;;;7.00;1.70;;;16.40;96.10;;;;;;5074429;28;20315;-82
2022/11/09 13:15:24;;;;;;;3.53;1.40;;;16.40;96.10;;;;;;5081365;28;20329;-81
2022/11/09 13:18:24;;;;;;;4.93;1.70;;;16.30;96.30;;;;;;5082319;28;20325;-81
2022/11/09 13:21:39;;;;;;;7.37;1.50;;;16.30;96.50;;;;;;5073901;28;20231;-81
2022/11/09 13:24:54;;;;;;;4.83;1.50;;;16.30;96.60;;;;;;5079883;28;20603;-81